Time;durP1;ratioP1;P1;durP2;ratioP2;P2;SDS_P1;SDS_P2;PMS_P1;PMS_P2;Temp;Humidity;BMP_temperature;BMP_pressure;BME280_temperature;BME280_humidity;BME280_pressure;Samples;Min_cycle;Max_cycle;Signal;HPM_P1;HPM_P2
2022/07/16 00:02:27;;;;;;;5.72;1.50;;;18.40;99.90;;;;;;5032403;28;20120;-34
2022/07/16 00:04:53;;;;;;;3.22;1.70;;;18.40;99.90;;;;;;5032192;28;20120;-44
2022/07/16 00:07:19;;;;;;;3.28;1.60;;;18.40;99.90;;;;;;5029660;28;20041;-41
2022/07/16 00:09:46;;;;;;;2.10;1.40;;;18.40;99.90;;;;;;5032607;28;20068;-37
2022/07/16 00:12:11;;;;;;;1.83;1.35;;;18.30;99.90;;;;;;5030918;28;20056;-34
2022/07/16 00:14:37;;;;;;;6.90;1.30;;;18.30;99.90;;;;;;5029871;28;20053;-35
2022/07/16 00:17:03;;;;;;;1.30;1.20;;;18.30;99.90;;;;;;5032752;28;20053;-34
2022/07/16 00:19:29;;;;;;;4.20;2.00;;;18.20;99.90;;;;;;5035466;28;20029;-34
2022/07/16 00:21:56;;;;;;;2.83;1.45;;;18.20;99.90;;;;;;5030058;28;20029;-40
2022/07/16 00:24:23;;;;;;;1.90;1.63;;;18.10;99.90;;;;;;5030651;28;20489;-38
2022/07/16 00:26:48;;;;;;;2.88;1.67;;;18.10;99.90;;;;;;5034451;28;20048;-42
2022/07/16 00:29:15;;;;;;;3.08;1.70;;;18.20;99.90;;;;;;5023742;28;20033;-42
2022/07/16 00:31:42;;;;;;;3.73;1.70;;;18.20;99.90;;;;;;5022388;28;20071;-42
2022/07/16 00:34:08;;;;;;;1.83;1.73;;;18.20;99.90;;;;;;5030293;28;20312;-41
2022/07/16 00:36:36;;;;;;;3.92;1.85;;;18.20;99.90;;;;;;5015917;28;20033;-41
2022/07/16 00:39:03;;;;;;;5.03;1.55;;;18.20;99.90;;;;;;5030905;28;20497;-38
2022/07/16 00:41:29;;;;;;;2.90;1.73;;;18.20;99.90;;;;;;5014111;28;20116;-34
2022/07/16 00:44:05;;;;;;;2.53;1.60;;;18.20;99.90;;;;;;5026801;28;20163;-38
2022/07/16 00:46:31;;;;;;;2.40;1.35;;;18.20;99.90;;;;;;5029257;28;20477;-41
2022/07/16 00:48:57;;;;;;;2.13;1.60;;;18.20;99.90;;;;;;5010052;28;20052;-37
2022/07/16 00:51:24;;;;;;;2.80;1.33;;;18.20;99.90;;;;;;5027596;28;20045;-38
2022/07/16 00:53:50;;;;;;;3.80;1.77;;;18.10;99.90;;;;;;5028612;28;20472;-42
2022/07/16 00:56:17;;;;;;;2.33;2.13;;;18.10;99.90;;;;;;5029687;28;20493;-43
2022/07/16 00:58:44;;;;;;;3.00;1.48;;;18.10;99.90;;;;;;5027157;28;20025;-38
2022/07/16 01:01:10;;;;;;;2.30;1.80;;;18.00;99.90;;;;;;5029335;28;20022;-36
2022/07/16 01:03:37;;;;;;;3.28;1.80;;;18.00;99.90;;;;;;5030501;28;20782;-37
2022/07/16 01:06:03;;;;;;;2.45;1.58;;;18.00;99.90;;;;;;5035837;28;20607;-34
2022/07/16 01:08:30;;;;;;;2.17;1.60;;;17.90;99.90;;;;;;5034277;28;20473;-39
2022/07/16 01:10:57;;;;;;;6.80;2.40;;;17.90;99.90;;;;;;5042122;28;20028;-39
2022/07/16 01:13:23;;;;;;;3.10;1.60;;;17.90;99.90;;;;;;5036155;28;20029;-38
2022/07/16 01:15:49;;;;;;;6.60;1.90;;;17.90;99.90;;;;;;5032931;28;20021;-34
2022/07/16 01:18:15;;;;;;;3.47;1.88;;;17.80;99.90;;;;;;5023994;28;20033;-35
2022/07/16 01:20:41;;;;;;;3.03;1.70;;;17.80;99.90;;;;;;5030979;28;20397;-38
2022/07/16 01:23:07;;;;;;;3.90;1.88;;;17.80;99.90;;;;;;5034382;28;20033;-40
2022/07/16 01:25:32;;;;;;;2.58;2.00;;;17.80;99.90;;;;;;5033391;28;20393;-39
2022/07/16 01:27:58;;;;;;;2.17;1.70;;;17.80;99.90;;;;;;5022506;28;20040;-39
2022/07/16 01:30:24;;;;;;;3.15;2.00;;;17.80;99.90;;;;;;5039637;28;20116;-39
2022/07/16 01:32:50;;;;;;;6.25;2.10;;;17.80;99.90;;;;;;5029950;28;20028;-41
2022/07/16 01:35:16;;;;;;;4.32;2.10;;;17.80;99.90;;;;;;5031136;28;20025;-33
2022/07/16 01:37:41;;;;;;;6.47;2.28;;;17.70;99.90;;;;;;5033700;28;20067;-39
2022/07/16 01:40:07;;;;;;;2.38;1.98;;;17.70;99.90;;;;;;5024343;28;20417;-39
2022/07/16 01:42:33;;;;;;;1.75;1.65;;;17.70;99.90;;;;;;5028547;28;20417;-39
2022/07/16 01:45:00;;;;;;;5.40;2.20;;;17.60;99.90;;;;;;5032936;28;20029;-35
2022/07/16 01:47:25;;;;;;;2.53;1.85;;;17.60;99.90;;;;;;5026613;28;20558;-63
2022/07/16 01:49:51;;;;;;;2.10;1.88;;;17.60;99.90;;;;;;5034874;28;20033;-68
2022/07/16 01:52:19;;;;;;;3.92;2.13;;;17.50;99.90;;;;;;5034138;28;20040;-39
2022/07/16 01:54:53;;;;;;;5.75;2.10;;;17.50;99.90;;;;;;5034013;28;20064;-39
2022/07/16 01:57:20;;;;;;;8.65;2.63;;;17.50;99.90;;;;;;5032683;28;20032;-37
2022/07/16 01:59:46;;;;;;;3.13;2.20;;;17.50;99.90;;;;;;5035146;28;20021;-39
2022/07/16 02:02:12;;;;;;;2.85;1.98;;;17.40;99.90;;;;;;5023323;28;20114;-41
2022/07/16 02:04:38;;;;;;;3.80;2.92;;;17.40;99.90;;;;;;5011256;28;20112;-39
2022/07/16 02:07:04;;;;;;;2.30;1.65;;;17.40;99.90;;;;;;5032342;28;20385;-42
2022/07/16 02:09:30;;;;;;;7.18;1.98;;;17.30;99.90;;;;;;5033915;28;20033;-39
2022/07/16 02:11:56;;;;;;;5.47;2.40;;;17.30;99.90;;;;;;5032238;28;20105;-39
2022/07/16 02:14:21;;;;;;;3.70;2.20;;;17.30;99.90;;;;;;5015316;28;20129;-39
2022/07/16 02:16:47;;;;;;;8.88;2.42;;;17.20;99.90;;;;;;5028277;28;20480;-37
2022/07/16 02:19:13;;;;;;;4.13;2.53;;;17.20;99.90;;;;;;5028760;28;20029;-37
2022/07/16 02:21:39;;;;;;;6.28;2.10;;;17.20;99.90;;;;;;5028651;28;20478;-39
2022/07/16 02:24:05;;;;;;;3.92;2.25;;;17.20;99.90;;;;;;5032330;28;20109;-39
2022/07/16 02:26:30;;;;;;;4.50;1.95;;;17.10;99.90;;;;;;5033253;28;20025;-39
2022/07/16 02:28:56;;;;;;;6.60;1.88;;;17.20;99.90;;;;;;5030766;28;20084;-40
2022/07/16 02:31:22;;;;;;;5.65;2.75;;;17.20;99.90;;;;;;5032847;28;20047;-39
2022/07/16 02:33:47;;;;;;;5.65;2.60;;;17.20;99.90;;;;;;5007678;28;20401;-37
2022/07/16 02:36:13;;;;;;;7.97;2.42;;;17.10;99.90;;;;;;5032041;28;20032;-34
2022/07/16 02:38:39;;;;;;;4.32;2.13;;;17.10;99.90;;;;;;5034614;28;20064;-30
2022/07/16 02:41:05;;;;;;;6.28;2.58;;;17.00;99.90;;;;;;5033431;28;20601;-39
2022/07/16 02:43:30;;;;;;;3.90;2.78;;;17.00;99.90;;;;;;5033293;28;20017;-35
2022/07/16 02:45:56;;;;;;;7.60;2.90;;;17.00;99.90;;;;;;5033149;28;20052;-39
2022/07/16 02:48:21;;;;;;;4.82;2.90;;;17.00;99.90;;;;;;5033037;28;20037;-35
2022/07/16 02:50:47;;;;;;;9.10;2.55;;;17.00;99.90;;;;;;5032152;28;20037;-36
2022/07/16 02:53:13;;;;;;;4.30;2.30;;;17.10;99.90;;;;;;5030348;28;20521;-37
2022/07/16 02:55:38;;;;;;;2.70;2.35;;;17.10;99.90;;;;;;5032510;28;20067;-48
2022/07/16 02:58:05;;;;;;;3.83;2.08;;;17.10;99.90;;;;;;5016551;28;20188;-40
2022/07/16 03:00:31;;;;;;;5.38;2.30;;;17.00;99.90;;;;;;5032030;28;20547;-39
2022/07/16 03:02:57;;;;;;;4.65;2.10;;;17.00;99.90;;;;;;5015341;28;20128;-42
2022/07/16 03:05:24;;;;;;;5.57;2.58;;;17.00;99.90;;;;;;5016781;28;20537;-39
2022/07/16 03:07:50;;;;;;;6.60;2.42;;;16.90;99.90;;;;;;5032300;28;20108;-33
2022/07/16 03:10:15;;;;;;;4.00;2.55;;;17.00;99.90;;;;;;5031371;28;20025;-35
2022/07/16 03:12:41;;;;;;;5.20;2.45;;;16.90;99.90;;;;;;5032136;28;20029;-31
2022/07/16 03:15:10;;;;;;;3.30;2.22;;;16.90;99.90;;;;;;5031394;28;20107;-37
2022/07/16 03:17:36;;;;;;;4.50;2.25;;;16.90;99.90;;;;;;5028723;28;20017;-34
2022/07/16 03:20:02;;;;;;;2.53;1.95;;;16.90;99.90;;;;;;5030552;28;20037;-35
2022/07/16 03:22:28;;;;;;;5.35;2.03;;;17.00;99.90;;;;;;5032011;28;20040;-43
2022/07/16 03:24:54;;;;;;;3.67;1.92;;;17.00;99.90;;;;;;5031787;28;20121;-30
2022/07/16 03:27:19;;;;;;;6.75;2.10;;;17.00;99.90;;;;;;5031180;28;20044;-32
2022/07/16 03:29:45;;;;;;;6.60;2.00;;;16.90;99.90;;;;;;5032563;28;20144;-37
2022/07/16 03:32:10;;;;;;;2.90;2.03;;;17.00;99.90;;;;;;5032075;28;20540;-39
2022/07/16 03:34:36;;;;;;;5.47;1.80;;;17.00;99.90;;;;;;5030403;28;20025;-34
2022/07/16 03:37:02;;;;;;;3.72;1.83;;;17.00;99.90;;;;;;5031751;28;20478;-36
2022/07/16 03:39:27;;;;;;;3.15;2.00;;;17.00;99.90;;;;;;5031762;28;20516;-31
2022/07/16 03:41:53;;;;;;;2.63;1.50;;;17.00;99.90;;;;;;5033050;28;20059;-38
2022/07/16 03:44:19;;;;;;;4.25;1.95;;;17.00;99.90;;;;;;5031505;28;20053;-33
2022/07/16 03:46:44;;;;;;;2.13;1.90;;;17.00;99.90;;;;;;5031270;28;20115;-36
2022/07/16 03:49:11;;;;;;;4.85;1.90;;;17.00;99.90;;;;;;5031865;28;20474;-30
2022/07/16 03:51:36;;;;;;;4.63;1.80;;;17.00;99.90;;;;;;5032260;28;20053;-32
2022/07/16 03:54:04;;;;;;;6.03;1.55;;;17.10;99.90;;;;;;5030472;28;20425;-33
2022/07/16 03:56:48;;;;;;;4.70;2.20;;;17.10;99.90;;;;;;5031610;28;20480;-36
2022/07/16 03:59:14;;;;;;;3.97;1.70;;;17.10;99.90;;;;;;5032998;28;20500;-33
2022/07/16 04:01:39;;;;;;;8.07;1.83;;;17.10;99.90;;;;;;5034324;28;20034;-31
2022/07/16 04:04:05;;;;;;;5.55;2.08;;;17.20;99.90;;;;;;5031698;28;20037;-36
2022/07/16 04:06:30;;;;;;;1.45;1.20;;;17.10;99.90;;;;;;5031151;28;20307;-39
2022/07/16 04:08:56;;;;;;;8.40;1.88;;;17.10;99.90;;;;;;5035040;28;20025;-36
2022/07/16 04:11:22;;;;;;;3.10;1.45;;;17.20;99.90;;;;;;5031366;28;20080;-36
2022/07/16 04:13:47;;;;;;;4.00;1.60;;;17.20;99.90;;;;;;5035621;28;20386;-37
2022/07/16 04:16:13;;;;;;;3.20;1.17;;;17.20;99.90;;;;;;5031860;28;20025;-32
2022/07/16 04:18:39;;;;;;;1.38;0.90;;;17.30;99.90;;;;;;5032954;28;20477;-34
2022/07/16 04:21:05;;;;;;;5.32;1.00;;;17.30;99.90;;;;;;5035666;28;20382;-35
2022/07/16 04:23:31;;;;;;;2.67;0.82;;;17.30;99.90;;;;;;5031988;28;20040;-39
2022/07/16 04:25:57;;;;;;;2.75;1.00;;;17.30;99.90;;;;;;5035508;28;20029;-34
2022/07/16 04:28:23;;;;;;;6.80;0.90;;;17.30;99.90;;;;;;5031163;28;20033;-38
2022/07/16 04:30:48;;;;;;;4.07;0.90;;;17.30;99.90;;;;;;5030798;28;20535;-40
2022/07/16 04:33:14;;;;;;;3.00;0.40;;;17.30;99.90;;;;;;5030714;28;20110;-40
2022/07/16 04:35:40;;;;;;;3.55;1.15;;;17.30;99.90;;;;;;5035624;28;20017;-40
2022/07/16 04:38:06;;;;;;;1.77;0.73;;;17.30;99.90;;;;;;5034680;28;20494;-40
2022/07/16 04:40:31;;;;;;;1.95;0.68;;;17.20;99.90;;;;;;5037055;28;20029;-41
2022/07/16 04:42:57;;;;;;;2.42;0.95;;;17.10;99.90;;;;;;5038955;28;20040;-42
2022/07/16 04:45:22;;;;;;;4.55;0.80;;;17.10;99.90;;;;;;5037260;28;20021;-41
2022/07/16 04:47:48;;;;;;;4.45;1.10;;;17.10;99.90;;;;;;5035683;28;20552;-59
2022/07/16 04:50:14;;;;;;;2.58;0.85;;;17.10;99.90;;;;;;5035193;28;20048;-40
2022/07/16 04:52:39;;;;;;;3.35;0.88;;;17.10;99.90;;;;;;5035471;28;20083;-40
2022/07/16 04:55:05;;;;;;;4.47;0.88;;;17.10;99.90;;;;;;5035623;28;20021;-40
2022/07/16 04:57:31;;;;;;;9.35;1.73;;;17.10;99.90;;;;;;5034365;28;20033;-37
2022/07/16 04:59:57;;;;;;;2.92;0.73;;;17.10;99.90;;;;;;5035942;28;20119;-44
2022/07/16 05:05:20;;;;;;;5.65;0.80;;;17.10;99.90;;;;;;5015974;28;20091;-40
2022/07/16 05:07:47;;;;;;;2.17;0.82;;;17.10;99.90;;;;;;5035089;28;20420;-40
2022/07/16 05:10:13;;;;;;;8.15;0.80;;;17.10;99.90;;;;;;5037608;28;20489;-51
2022/07/16 05:12:38;;;;;;;3.50;0.80;;;17.10;99.90;;;;;;5034128;28;20036;-40
2022/07/16 05:15:04;;;;;;;5.32;1.25;;;17.10;99.90;;;;;;5036341;28;20026;-40
2022/07/16 05:17:30;;;;;;;0.80;0.80;;;17.10;99.90;;;;;;5033640;28;20022;-40
2022/07/16 05:19:55;;;;;;;2.53;0.80;;;17.20;99.90;;;;;;5033759;28;20025;-40
2022/07/16 05:22:21;;;;;;;7.55;0.93;;;17.20;99.90;;;;;;5037691;28;20087;-40
2022/07/16 05:24:46;;;;;;;7.07;1.52;;;17.20;99.90;;;;;;5035086;28;20481;-40
2022/07/16 05:27:12;;;;;;;3.10;0.80;;;17.10;99.90;;;;;;5034233;28;20045;-33
2022/07/16 05:29:38;;;;;;;4.05;0.88;;;17.10;99.90;;;;;;5034901;28;20025;-39
2022/07/16 05:32:04;;;;;;;2.97;0.95;;;17.10;99.90;;;;;;5034663;28;20029;-32
2022/07/16 05:34:29;;;;;;;3.65;0.90;;;17.20;99.90;;;;;;5020117;28;20120;-40
2022/07/16 05:36:55;;;;;;;3.15;1.35;;;17.20;99.90;;;;;;5032704;28;20148;-36
2022/07/16 05:39:20;;;;;;;6.25;1.25;;;17.20;99.90;;;;;;5032979;28;20041;-37
2022/07/16 05:41:46;;;;;;;1.85;0.93;;;17.20;99.90;;;;;;5016140;28;20028;-37
2022/07/16 05:44:12;;;;;;;3.60;1.30;;;17.20;99.90;;;;;;5034353;28;20033;-33
2022/07/16 05:46:37;;;;;;;4.57;1.10;;;17.10;99.90;;;;;;5033785;28;20152;-36
2022/07/16 05:49:03;;;;;;;6.00;1.27;;;17.10;99.90;;;;;;5033570;28;20044;-33
2022/07/16 05:51:28;;;;;;;3.75;1.33;;;17.20;99.90;;;;;;5032763;28;20029;-38
2022/07/16 05:53:54;;;;;;;2.78;1.00;;;17.20;99.90;;;;;;5034148;28;20071;-32
2022/07/16 05:56:19;;;;;;;3.00;1.10;;;17.20;99.90;;;;;;5031547;28;20032;-39
2022/07/16 05:58:45;;;;;;;5.07;1.45;;;17.20;99.90;;;;;;5034900;28;20080;-41
2022/07/16 06:01:11;;;;;;;1.67;1.08;;;17.30;99.90;;;;;;5034010;28;20101;-40
2022/07/16 06:03:37;;;;;;;1.77;0.98;;;17.30;99.90;;;;;;5009584;28;20021;-40
2022/07/16 06:06:02;;;;;;;7.50;1.02;;;17.40;99.90;;;;;;5024904;28;20025;-40
2022/07/16 06:08:28;;;;;;;9.65;1.45;;;17.40;99.90;;;;;;5034316;28;20025;-38
2022/07/16 06:10:54;;;;;;;4.13;1.00;;;17.50;99.90;;;;;;5035150;28;20029;-38
2022/07/16 06:13:19;;;;;;;3.95;0.73;;;17.50;99.90;;;;;;5037570;28;20076;-36
2022/07/16 06:15:48;;;;;;;1.52;0.77;;;17.50;99.90;;;;;;5031638;28;20036;-38
2022/07/16 06:18:13;;;;;;;1.65;0.73;;;17.60;99.90;;;;;;5033106;28;20018;-59
2022/07/16 06:20:39;;;;;;;2.05;0.70;;;17.80;99.90;;;;;;5037457;28;20082;-40
2022/07/16 06:23:05;;;;;;;2.85;1.05;;;18.00;99.90;;;;;;5033882;28;20044;-40
2022/07/16 06:25:32;;;;;;;6.35;1.42;;;18.00;99.90;;;;;;5031168;28;20505;-55
2022/07/16 06:27:57;;;;;;;1.33;0.60;;;18.20;99.90;;;;;;5033680;28;20040;-40
2022/07/16 06:30:23;;;;;;;6.85;0.75;;;18.30;99.90;;;;;;5033068;28;20033;-40
2022/07/16 06:32:48;;;;;;;2.22;0.70;;;18.90;99.90;;;;;;5032846;28;20461;-40
2022/07/16 06:35:14;;;;;;;8.43;1.02;;;18.90;99.90;;;;;;5032496;28;20100;-39
2022/07/16 06:37:40;;;;;;;4.30;0.90;;;18.80;99.90;;;;;;5033484;28;20034;-40
2022/07/16 06:40:06;;;;;;;3.80;0.45;;;18.80;99.90;;;;;;5033181;28;20039;-40
2022/07/16 06:42:32;;;;;;;6.50;0.55;;;19.50;99.90;;;;;;5032260;28;20079;-37
2022/07/16 06:44:58;;;;;;;3.50;0.75;;;20.10;99.90;;;;;;5008232;28;20493;-41
2022/07/16 06:47:24;;;;;;;1.52;0.40;;;20.80;99.90;;;;;;5027809;28;20036;-37
2022/07/16 06:49:50;;;;;;;3.85;0.60;;;21.20;99.90;;;;;;5034164;28;20489;-39
2022/07/16 06:52:16;;;;;;;5.10;0.98;;;20.80;99.90;;;;;;5019618;28;20021;-38
2022/07/16 06:54:42;;;;;;;1.95;0.60;;;20.40;99.90;;;;;;5033095;28;20484;-39
2022/07/16 06:57:07;;;;;;;4.13;0.68;;;19.90;99.90;;;;;;5033181;28;20462;-54
2022/07/16 06:59:33;;;;;;;2.85;0.60;;;19.40;99.90;;;;;;5032947;28;20021;-36
2022/07/16 07:01:59;;;;;;;0.85;0.47;;;19.00;99.90;;;;;;5032983;28;20029;-37
2022/07/16 07:04:24;;;;;;;1.27;0.70;;;19.00;99.90;;;;;;5013855;28;20057;-37
2022/07/16 07:06:50;;;;;;;3.88;0.80;;;19.30;99.90;;;;;;5014023;28;20037;-34
2022/07/16 07:09:15;;;;;;;1.10;0.80;;;19.90;99.90;;;;;;5014138;28;20094;-35
2022/07/16 07:11:42;;;;;;;3.03;0.60;;;21.20;99.90;;;;;;5035276;28;20064;-39
2022/07/16 07:14:08;;;;;;;1.17;0.43;;;22.20;98.70;;;;;;5036719;28;20028;-37
2022/07/16 07:16:34;;;;;;;0.68;0.50;;;22.40;98.00;;;;;;5035523;28;20029;-35
2022/07/16 07:18:59;;;;;;;2.78;0.55;;;23.00;97.40;;;;;;5033522;28;20482;-33
2022/07/16 07:21:26;;;;;;;0.55;0.40;;;23.40;97.00;;;;;;5036198;28;20037;-48
2022/07/16 07:23:52;;;;;;;6.63;1.20;;;23.30;96.90;;;;;;5033672;28;20381;-40
2022/07/16 07:26:17;;;;;;;2.47;0.50;;;23.20;97.00;;;;;;5034893;28;20022;-38
2022/07/16 07:28:43;;;;;;;2.03;0.75;;;23.20;97.20;;;;;;5019108;28;20042;-40
2022/07/16 07:31:09;;;;;;;1.85;0.50;;;23.30;97.10;;;;;;5028502;28;20022;-36
2022/07/16 07:33:36;;;;;;;0.82;0.63;;;23.00;96.90;;;;;;5031594;28;20017;-40
2022/07/16 07:36:02;;;;;;;;;;;22.60;97.40;;;;;;4987957;28;20088;-38
2022/07/16 07:38:28;;;;;;;3.47;0.50;;;22.60;97.60;;;;;;5032342;28;19913;-35
2022/07/16 07:40:53;;;;;;;1.20;0.60;;;22.50;97.80;;;;;;5012470;28;20044;-40
2022/07/16 07:43:19;;;;;;;1.65;0.60;;;22.50;97.80;;;;;;5031245;28;20138;-43
2022/07/16 07:45:45;;;;;;;4.30;1.05;;;22.10;98.20;;;;;;5028158;28;20037;-39
2022/07/16 07:48:11;;;;;;;2.05;0.65;;;21.80;98.60;;;;;;5029760;28;20035;-40
2022/07/16 07:50:36;;;;;;;6.72;0.90;;;21.70;98.60;;;;;;5030185;28;20040;-44
2022/07/16 07:53:04;;;;;;;5.38;0.63;;;21.20;98.40;;;;;;5031367;28;20022;-40
2022/07/16 07:55:30;;;;;;;2.70;0.70;;;20.70;98.90;;;;;;5027365;28;20389;-39
2022/07/16 07:57:56;;;;;;;1.10;0.50;;;20.40;99.20;;;;;;5027643;28;20072;-38
2022/07/16 08:00:22;;;;;;;0.45;0.43;;;20.20;99.70;;;;;;5027925;28;20496;-40
2022/07/16 08:02:48;;;;;;;6.97;0.57;;;20.30;99.60;;;;;;5029138;28;20531;-40
2022/07/16 08:05:15;;;;;;;2.10;0.68;;;20.10;99.90;;;;;;5012295;28;20029;-40
2022/07/16 08:07:41;;;;;;;1.10;0.43;;;20.10;99.80;;;;;;5031956;28;20143;-52
2022/07/16 08:10:10;;;;;;;2.05;0.52;;;20.10;99.80;;;;;;5030959;28;20033;-34
2022/07/16 08:12:38;;;;;;;3.10;0.60;;;20.20;99.80;;;;;;5034216;28;20025;-36
2022/07/16 08:15:05;;;;;;;2.33;0.88;;;20.50;99.60;;;;;;5036123;28;20030;-36
2022/07/16 08:17:30;;;;;;;3.77;0.70;;;20.90;99.60;;;;;;5056585;28;20028;-35
2022/07/16 08:19:56;;;;;;;7.45;1.38;;;21.00;98.50;;;;;;5056423;28;20037;-39
2022/07/16 08:22:22;;;;;;;1.40;0.50;;;21.20;98.30;;;;;;5048535;28;20022;-43
2022/07/16 08:27:31;;;;;;;2.58;0.55;;;20.90;98.60;;;;;;5036761;28;20040;-36
2022/07/16 08:30:16;;;;;;;3.97;1.15;;;20.70;99.00;;;;;;5036568;28;20017;-31
2022/07/16 08:32:41;;;;;;;1.38;0.82;;;20.80;98.80;;;;;;5041653;28;20501;-36
2022/07/16 08:35:07;;;;;;;5.80;0.60;;;20.90;98.80;;;;;;5032867;28;20010;-36
2022/07/16 08:37:39;;;;;;;1.02;0.50;;;21.10;99.10;;;;;;5036121;28;20473;-37
2022/07/16 08:40:07;;;;;;;1.17;0.50;;;21.60;98.60;;;;;;5033456;28;20495;-35
2022/07/16 08:42:34;;;;;;;6.28;0.60;;;21.90;98.10;;;;;;5015268;28;20060;-37
2022/07/16 08:45:18;;;;;;;1.88;0.70;;;22.00;97.70;;;;;;5032382;28;20038;-32
2022/07/16 08:47:44;;;;;;;3.72;0.57;;;21.90;97.80;;;;;;5037709;28;20079;-35
2022/07/16 08:50:12;;;;;;;1.45;0.35;;;22.10;97.30;;;;;;5035300;28;20045;-35
2022/07/16 08:52:48;;;;;;;2.25;0.75;;;22.00;97.30;;;;;;5036173;28;20489;-35
2022/07/16 08:55:13;;;;;;;1.45;0.40;;;21.90;96.80;;;;;;5036188;28;20032;-35
2022/07/16 08:57:40;;;;;;;2.25;0.40;;;21.70;96.80;;;;;;5030353;28;20018;-34
2022/07/16 09:00:11;;;;;;;1.88;0.73;;;21.90;96.90;;;;;;5035409;28;20405;-35
2022/07/16 09:02:37;;;;;;;2.80;0.85;;;22.00;96.70;;;;;;5034956;28;20029;-40
2022/07/16 09:05:03;;;;;;;2.08;0.60;;;21.60;97.10;;;;;;5017053;28;20104;-37
2022/07/16 09:07:29;;;;;;;0.57;0.38;;;21.40;97.20;;;;;;5016430;28;20036;-36
2022/07/16 09:09:55;;;;;;;2.00;0.55;;;21.60;97.40;;;;;;5035754;28;20029;-38
2022/07/16 09:12:40;;;;;;;5.25;0.70;;;21.60;97.30;;;;;;5035028;28;20059;-35
2022/07/16 09:15:27;;;;;;;1.33;0.70;;;21.80;96.90;;;;;;5034757;28;20029;-36
2022/07/16 09:18:05;;;;;;;1.15;0.43;;;21.80;96.70;;;;;;5034215;28;20017;-38
2022/07/16 09:20:31;;;;;;;0.70;0.57;;;21.60;97.00;;;;;;5035716;28;20370;-37
2022/07/16 09:22:57;;;;;;;5.60;0.70;;;22.00;97.20;;;;;;5033906;28;20022;-33
2022/07/16 09:25:22;;;;;;;3.13;0.80;;;22.10;96.50;;;;;;5033252;28;20034;-36
2022/07/16 09:27:57;;;;;;;5.43;0.80;;;21.70;96.40;;;;;;5035539;28;20512;-35
2022/07/16 09:30:24;;;;;;;2.92;1.10;;;21.60;96.60;;;;;;5035462;28;20026;-35
2022/07/16 09:32:50;;;;;;;1.58;1.00;;;21.60;96.50;;;;;;5035709;28;20550;-37
2022/07/16 09:35:17;;;;;;;1.25;1.10;;;21.60;97.00;;;;;;5033602;28;20057;-36
2022/07/16 09:37:46;;;;;;;2.33;0.40;;;21.70;96.60;;;;;;5035371;28;20536;-34
2022/07/16 09:40:12;;;;;;;0.80;0.75;;;21.70;96.20;;;;;;5034303;28;20379;-38
2022/07/16 09:42:39;;;;;;;4.40;0.90;;;21.80;96.20;;;;;;5033568;28;20481;-35
2022/07/16 09:45:06;;;;;;;1.35;0.52;;;21.70;96.20;;;;;;5031872;28;20060;-36
2022/07/16 09:47:31;;;;;;;;;;;21.70;96.30;;;;;;5017144;28;20040;-37
2022/07/16 09:49:58;;;;;;;2.72;1.08;;;21.70;96.40;;;;;;5034854;28;19913;-36
2022/07/16 09:52:32;;;;;;;3.88;0.60;;;22.00;96.10;;;;;;5050138;28;20468;-35
2022/07/16 09:54:59;;;;;;;1.95;0.40;;;22.30;96.50;;;;;;5036461;28;20029;-34
2022/07/16 09:57:27;;;;;;;2.50;0.50;;;22.50;95.30;;;;;;5033013;28;20505;-38
2022/07/16 09:59:53;;;;;;;2.70;0.80;;;22.40;95.80;;;;;;5034899;28;20076;-38
2022/07/16 10:02:19;;;;;;;0.95;0.90;;;22.20;95.00;;;;;;5032845;28;20068;-33
2022/07/16 10:04:45;;;;;;;4.72;0.82;;;21.90;95.50;;;;;;5033669;28;20484;-36
2022/07/16 10:07:11;;;;;;;2.83;0.63;;;22.20;95.80;;;;;;5033850;28;20035;-43
2022/07/16 10:09:37;;;;;;;1.60;0.70;;;22.40;95.50;;;;;;5032586;28;20390;-39
2022/07/16 10:12:09;;;;;;;1.42;0.55;;;22.70;95.20;;;;;;5034646;28;20056;-39
2022/07/16 10:14:36;;;;;;;2.47;0.50;;;22.50;95.00;;;;;;5013311;28;20082;-40
2022/07/16 10:17:13;;;;;;;0.93;0.50;;;22.50;94.60;;;;;;5028382;28;21536;-39
2022/07/16 10:19:39;;;;;;;3.10;0.77;;;22.40;94.50;;;;;;5021987;28;20468;-37
2022/07/16 10:22:27;;;;;;;0.90;0.50;;;22.60;94.40;;;;;;5018741;28;20470;-39
2022/07/16 10:24:54;;;;;;;2.42;0.70;;;22.10;94.80;;;;;;5029720;28;20393;-40
2022/07/16 10:27:29;;;;;;;2.58;0.65;;;22.20;94.80;;;;;;5031860;28;20037;-40
2022/07/16 10:30:15;;;;;;;2.45;0.82;;;22.10;95.00;;;;;;5023755;28;20116;-38
2022/07/16 10:32:59;;;;;;;1.95;0.57;;;21.90;95.10;;;;;;5019555;28;20515;-41
2022/07/16 10:35:44;;;;;;;3.13;0.60;;;22.00;94.60;;;;;;5026030;28;20488;-36
2022/07/16 10:38:09;;;;;;;7.28;0.73;;;22.10;94.60;;;;;;5031053;28;20029;-35
2022/07/16 10:40:37;;;;;;;2.20;0.93;;;21.90;94.80;;;;;;5029780;28;20086;-39
2022/07/16 10:43:19;;;;;;;;;;;21.90;94.90;;;;;;5029901;28;20553;-36
2022/07/16 10:46:05;;;;;;;3.60;0.60;;;21.90;94.90;;;;;;5025578;28;20352;-34
2022/07/16 10:48:51;;;;;;;1.93;0.70;;;21.80;94.90;;;;;;5027765;28;20029;-42
2022/07/16 10:51:24;;;;;;;1.98;0.80;;;21.80;94.60;;;;;;5031068;28;20045;-36
2022/07/16 10:54:01;;;;;;;2.78;0.57;;;22.20;94.60;;;;;;5021652;28;20048;-37
2022/07/16 10:56:35;;;;;;;1.63;0.90;;;22.30;94.90;;;;;;5013256;28;20111;-39
2022/07/16 10:59:06;;;;;;;8.75;0.80;;;22.20;94.80;;;;;;5031887;28;20833;-35
2022/07/16 11:01:32;;;;;;;2.40;0.70;;;22.30;95.20;;;;;;5028442;28;20079;-38
2022/07/16 11:03:58;;;;;;;3.25;0.43;;;22.20;94.40;;;;;;5024719;28;20025;-33
2022/07/16 11:06:24;;;;;;;0.85;0.63;;;22.10;95.00;;;;;;5037403;28;20021;-37
2022/07/16 11:08:54;;;;;;;2.53;0.67;;;22.00;95.10;;;;;;5026402;28;20483;-41
2022/07/16 11:11:20;;;;;;;0.85;0.50;;;22.00;95.10;;;;;;5021431;28;20071;-51
2022/07/16 11:13:52;;;;;;;5.97;0.60;;;21.80;94.60;;;;;;5012287;28;20033;-38
2022/07/16 11:16:18;;;;;;;1.42;0.68;;;21.60;94.70;;;;;;5029067;28;20100;-34
2022/07/16 11:18:44;;;;;;;3.85;1.35;;;21.70;94.60;;;;;;5025534;28;20096;-32
2022/07/16 11:21:10;;;;;;;21.02;10.88;;;21.70;95.20;;;;;;5026833;28;20151;-40
2022/07/16 11:23:50;;;;;;;15.25;6.80;;;21.80;94.90;;;;;;5025562;28;20373;-40
2022/07/16 11:26:16;;;;;;;6.50;2.10;;;21.80;95.10;;;;;;5027806;28;20033;-40
2022/07/16 11:28:58;;;;;;;1.27;0.77;;;21.90;95.00;;;;;;5028572;28;20527;-41
2022/07/16 11:31:30;;;;;;;2.55;0.60;;;21.80;95.00;;;;;;5028664;28;20068;-36
2022/07/16 11:34:00;;;;;;;5.85;0.95;;;21.80;95.20;;;;;;5027877;28;20022;-39
2022/07/16 11:36:34;;;;;;;2.42;0.70;;;21.90;95.40;;;;;;5027984;28;20021;-37
2022/07/16 11:39:05;;;;;;;3.75;0.75;;;22.10;94.80;;;;;;5009013;28;20504;-41
2022/07/16 11:41:32;;;;;;;2.78;0.75;;;22.10;94.90;;;;;;5007103;28;20401;-39
2022/07/16 11:43:58;;;;;;;2.75;0.63;;;22.30;95.10;;;;;;5027828;28;20507;-40
2022/07/16 11:46:26;;;;;;;3.50;0.70;;;22.30;94.60;;;;;;5027716;28;20017;-39
2022/07/16 11:48:53;;;;;;;2.00;0.55;;;22.00;95.10;;;;;;5024089;28;20033;-38
2022/07/16 11:51:21;;;;;;;18.85;0.82;;;22.00;95.20;;;;;;5027673;28;20511;-35
2022/07/16 11:53:50;;;;;;;;;;;22.10;95.00;;;;;;5024693;28;20377;-35
2022/07/16 11:56:33;;;;;;;2.80;0.88;;;22.10;95.10;;;;;;5026648;28;19909;-40
2022/07/16 11:58:59;;;;;;;2.17;0.80;;;22.20;95.60;;;;;;5026306;28;20448;-41
2022/07/16 12:01:25;;;;;;;1.50;0.52;;;22.50;94.90;;;;;;5026985;28;20109;-38
2022/07/16 12:03:55;;;;;;;1.80;0.63;;;22.70;95.00;;;;;;5028027;28;20030;-39
2022/07/16 12:06:21;;;;;;;2.88;0.77;;;22.70;94.50;;;;;;5027424;28;20029;-30
2022/07/16 12:08:54;;;;;;;4.53;0.90;;;22.70;94.40;;;;;;5024369;28;20087;-31
2022/07/16 12:11:19;;;;;;;1.80;0.60;;;22.50;94.40;;;;;;5027196;28;20482;-35
2022/07/16 12:13:53;;;;;;;1.05;0.57;;;22.70;94.10;;;;;;5023717;28;20104;-37
2022/07/16 12:16:20;;;;;;;4.13;0.82;;;22.40;93.80;;;;;;5024253;28;20035;-36
2022/07/16 12:19:03;;;;;;;2.22;0.60;;;22.60;94.10;;;;;;5024876;28;20048;-37
2022/07/16 12:21:31;;;;;;;1.00;0.50;;;22.40;93.40;;;;;;4995891;28;20061;-36
2022/07/16 12:23:57;;;;;;;3.50;0.40;;;22.50;93.80;;;;;;5025904;28;20033;-34
2022/07/16 12:26:33;;;;;;;5.90;0.70;;;22.80;94.00;;;;;;5027451;28;20021;-36
2022/07/16 12:29:00;;;;;;;2.65;0.85;;;22.90;93.10;;;;;;5025886;28;20070;-38
2022/07/16 12:31:30;;;;;;;0.93;0.43;;;23.00;93.10;;;;;;5023615;28;20460;-35
2022/07/16 12:33:57;;;;;;;0.77;0.50;;;23.10;93.80;;;;;;5027882;28;20355;-37
2022/07/16 12:36:34;;;;;;;1.45;0.50;;;23.20;93.20;;;;;;5027165;28;20014;-39
2022/07/16 12:39:03;;;;;;;2.28;0.73;;;23.20;93.00;;;;;;5022899;28;20053;-35
2022/07/16 12:41:33;;;;;;;3.92;0.60;;;23.20;93.70;;;;;;5024908;28;20147;-40
2022/07/16 12:44:09;;;;;;;2.80;0.60;;;23.30;93.50;;;;;;5006132;28;20124;-39
2022/07/16 12:46:41;;;;;;;5.32;0.68;;;23.10;93.20;;;;;;5025354;28;20373;-40
2022/07/16 12:49:10;;;;;;;2.20;0.50;;;23.10;93.00;;;;;;5027865;28;20064;-40
2022/07/16 12:51:38;;;;;;;2.40;0.70;;;23.10;93.20;;;;;;5027530;28;20087;-39
2022/07/16 12:54:06;;;;;;;1.40;0.35;;;23.10;92.90;;;;;;5024886;28;20022;-33
2022/07/16 12:59:18;;;;;;;3.55;0.52;;;23.10;93.90;;;;;;5028523;28;20390;-37